createdAt,value
2019-03-01T00:01:26.948Z,45.03
2019-03-01T00:04:04.152Z,44.73
2019-03-01T00:06:36.829Z,44.81
2019-03-01T00:09:49.069Z,44.83
2019-03-01T00:13:09.256Z,45.11
2019-03-01T00:16:01.373Z,44.56
2019-03-01T00:18:40.322Z,48.35
2019-03-01T00:21:41.564Z,46.56
2019-03-01T00:24:19.392Z,51.73
2019-03-01T00:27:24.755Z,50.78
2019-03-01T00:30:41.611Z,48.25
2019-03-01T00:33:30.600Z,49.95
2019-03-01T00:36:39.598Z,50.23
2019-03-01T00:39:40.562Z,49.28
2019-03-01T00:42:42.708Z,46.72
2019-03-01T00:45:10.132Z,46.40
2019-03-01T00:47:37.597Z,46.18
2019-03-01T00:50:05.642Z,46.18
2019-03-01T00:52:33.101Z,45.25
2019-03-01T00:55:00.989Z,44.88
2019-03-01T00:57:28.503Z,45.18
2019-03-01T00:59:55.960Z,45.37
2019-03-01T01:02:23.410Z,44.93
2019-03-01T01:04:50.861Z,45.96
2019-03-01T01:07:18.257Z,45.01
2019-03-01T01:09:45.722Z,45.17
2019-03-01T01:12:13.155Z,45.77
2019-03-01T01:14:40.624Z,46.73
2019-03-01T01:17:08.081Z,47.47
2019-03-01T01:19:35.561Z,47.81
2019-03-01T01:22:02.993Z,47.79
2019-03-01T01:24:30.385Z,48.14
2019-03-01T01:26:58.055Z,48.98
2019-03-01T01:29:25.460Z,51.20
2019-03-01T01:31:52.911Z,50.62
2019-03-01T01:34:20.288Z,49.88
2019-03-01T01:36:47.719Z,50.12
2019-03-01T01:39:15.189Z,49.25
2019-03-01T01:41:42.631Z,53.87
2019-03-01T01:44:10.094Z,49.65
2019-03-01T01:46:37.496Z,58.71
2019-03-01T01:49:04.999Z,48.82
2019-03-01T01:51:32.462Z,49.84
2019-03-01T01:53:59.957Z,49.84
2019-03-01T01:56:27.546Z,53.39
2019-03-01T01:58:55.098Z,52.35
2019-03-01T02:01:22.747Z,55.52
2019-03-01T02:03:50.186Z,52.09
2019-03-01T02:06:17.600Z,55.89
2019-03-01T02:08:45.097Z,52.63
2019-03-01T02:11:12.542Z,52.26
2019-03-01T02:13:39.957Z,54.61
2019-03-01T02:16:07.434Z,54.54
2019-03-01T02:18:34.847Z,54.39
2019-03-01T02:21:02.213Z,52.83
2019-03-01T02:23:29.632Z,53.50
2019-03-01T02:25:57.055Z,50.07
2019-03-01T02:28:24.439Z,51.36
2019-03-01T02:30:52.530Z,49.67
2019-03-01T02:33:19.989Z,49.92
2019-03-01T02:35:47.373Z,48.05
2019-03-01T02:38:14.870Z,48.25
2019-03-01T02:40:42.397Z,47.57
2019-03-01T02:43:09.839Z,48.11
2019-03-01T02:45:37.252Z,47.16
2019-03-01T02:48:04.622Z,47.31
2019-03-01T02:50:32.121Z,47.48
2019-03-01T02:52:59.578Z,49.12
2019-03-01T02:55:27.108Z,47.95
2019-03-01T02:57:54.533Z,49.39
2019-03-01T03:00:23.917Z,50.86
2019-03-01T03:02:51.335Z,52.20
2019-03-01T03:05:18.885Z,52.90
2019-03-01T03:07:50.835Z,52.59
2019-03-01T03:10:18.483Z,52.50
2019-03-01T03:12:46.352Z,54.74
2019-03-01T03:15:14.815Z,51.91
2019-03-01T03:17:42.360Z,52.85
2019-03-01T03:20:09.985Z,56.29
2019-03-01T03:22:37.350Z,53.08
2019-03-01T03:25:05.669Z,54.90
2019-03-01T03:27:33.099Z,52.71
2019-03-01T03:30:00.674Z,58.29
2019-03-01T03:32:28.357Z,53.87
2019-03-01T03:34:55.728Z,54.63
2019-03-01T03:37:23.194Z,53.33
2019-03-01T03:39:50.643Z,53.41
2019-03-01T03:42:18.155Z,58.10
2019-03-01T03:44:45.610Z,55.26
2019-03-01T03:47:13.069Z,55.36
2019-03-01T03:49:40.470Z,53.82
2019-03-01T03:52:07.854Z,52.77
2019-03-01T03:54:35.317Z,51.72
2019-03-01T03:57:03.240Z,52.69
2019-03-01T03:59:30.933Z,53.14
2019-03-01T04:01:58.588Z,53.37
2019-03-01T04:04:26.103Z,53.42
2019-03-01T04:06:53.599Z,54.39
2019-03-01T04:09:21.024Z,55.88
2019-03-01T04:11:48.488Z,55.08
2019-03-01T04:14:15.900Z,56.13
2019-03-01T04:16:43.318Z,57.08
2019-03-01T04:19:10.826Z,54.85
2019-03-01T04:21:38.289Z,60.85
2019-03-01T04:24:05.636Z,55.19
2019-03-01T04:26:33.229Z,53.35
2019-03-01T04:29:00.748Z,53.29
2019-03-01T04:31:28.161Z,53.48
2019-03-01T04:33:55.585Z,53.80
2019-03-01T04:36:23.058Z,53.25
2019-03-01T04:38:50.535Z,52.47
2019-03-01T04:41:18.001Z,51.92
2019-03-01T04:43:45.445Z,51.28
2019-03-01T04:46:12.972Z,55.65
2019-03-01T04:48:40.412Z,52.44
2019-03-01T04:51:09.763Z,54.83
2019-03-01T04:53:37.230Z,56.65
2019-03-01T04:56:04.731Z,54.10
2019-03-01T04:58:32.204Z,56.05
2019-03-01T05:00:59.686Z,53.21
2019-03-01T05:03:27.197Z,58.25
2019-03-01T05:05:54.624Z,51.93
2019-03-01T05:08:22.010Z,51.94
2019-03-01T05:10:49.556Z,49.01
2019-03-01T05:13:17.029Z,48.89
2019-03-01T05:15:44.385Z,47.68
2019-03-01T05:18:11.810Z,47.48
2019-03-01T05:20:39.274Z,47.18
2019-03-01T05:23:06.678Z,47.98
2019-03-01T05:25:34.090Z,47.61
2019-03-01T05:28:01.540Z,48.51
2019-03-01T05:30:28.972Z,49.07
2019-03-01T05:32:56.468Z,49.14
2019-03-01T05:35:23.889Z,50.33
2019-03-01T05:37:51.253Z,50.63
2019-03-01T05:40:18.705Z,50.80
2019-03-01T05:42:46.121Z,50.86
2019-03-01T05:45:16.108Z,50.75
2019-03-01T05:47:43.551Z,50.92
2019-03-01T05:50:11.567Z,51.42
2019-03-01T05:52:38.990Z,51.09
2019-03-01T05:55:06.639Z,50.88
2019-03-01T05:57:34.742Z,50.44
2019-03-01T06:00:02.910Z,50.71
2019-03-01T06:03:08.478Z,49.96
2019-03-01T06:05:40.179Z,49.78
2019-03-01T06:08:58.830Z,49.70
2019-03-01T06:11:44.335Z,50.08
2019-03-01T06:14:25.313Z,49.43
2019-03-01T06:17:33.138Z,49.82
2019-03-01T06:20:38.129Z,49.90
2019-03-01T06:23:48.743Z,50.61
2019-03-01T06:27:10.094Z,48.87
2019-03-01T06:30:17.818Z,50.47
2019-03-01T06:33:10.502Z,47.15
2019-03-01T06:35:57.837Z,47.67
2019-03-01T06:39:20.306Z,49.06
2019-03-01T06:42:16.601Z,47.11
2019-03-01T06:45:41.432Z,44.77
2019-03-01T06:48:12.361Z,43.33
2019-03-01T06:51:02.387Z,42.75
2019-03-01T06:53:29.841Z,42.81
2019-03-01T06:56:00.220Z,41.89
2019-03-01T06:58:32.777Z,41.86
2019-03-01T07:01:07.950Z,41.58
2019-03-01T07:03:35.406Z,41.59
2019-03-01T07:06:03.527Z,39.91
2019-03-01T07:08:31.326Z,39.16
2019-03-01T07:10:58.834Z,38.23
2019-03-01T07:13:26.280Z,37.39
2019-03-01T07:15:53.699Z,36.50
2019-03-01T07:18:21.070Z,36.34
2019-03-01T07:20:48.490Z,35.94
2019-03-01T07:23:15.959Z,35.64
2019-03-01T07:25:43.347Z,34.93
2019-03-01T07:28:10.794Z,35.00
2019-03-01T07:30:38.249Z,34.90
2019-03-01T07:33:05.688Z,34.77
2019-03-01T07:35:33.109Z,34.03
2019-03-01T07:38:00.731Z,34.21
2019-03-01T07:40:28.176Z,34.14
2019-03-01T07:42:55.618Z,34.08
2019-03-01T07:45:23.396Z,33.63
2019-03-01T07:47:51.185Z,33.53
2019-03-01T07:50:18.954Z,33.15
2019-03-01T07:52:46.382Z,33.13
2019-03-01T07:55:13.856Z,32.91
2019-03-01T07:57:41.379Z,32.99
2019-03-01T08:00:14.213Z,32.88
2019-03-01T08:02:41.007Z,33.29
2019-03-01T08:05:10.003Z,33.57
2019-03-01T08:07:37.521Z,33.69
2019-03-01T08:10:06.764Z,33.43
2019-03-01T08:12:34.182Z,32.88
2019-03-01T08:15:04.004Z,32.67
2019-03-01T08:17:31.599Z,32.68
2019-03-01T08:19:59.968Z,32.75
2019-03-01T08:22:27.442Z,32.62
2019-03-01T08:24:54.913Z,31.97
2019-03-01T08:27:22.360Z,31.78
2019-03-01T08:29:49.867Z,31.76
2019-03-01T08:32:17.327Z,31.92
2019-03-01T08:34:44.703Z,32.35
2019-03-01T08:37:14.516Z,32.54
2019-03-01T08:39:43.537Z,32.70
2019-03-01T08:42:10.958Z,32.89
2019-03-01T08:44:38.404Z,32.95
2019-03-01T08:47:05.924Z,33.10
2019-03-01T08:49:33.350Z,33.16
2019-03-01T08:52:01.437Z,33.21
2019-03-01T08:54:31.122Z,33.04
2019-03-01T08:56:59.307Z,32.84
2019-03-01T08:59:27.035Z,33.01
2019-03-01T09:01:54.716Z,33.25
2019-03-01T09:04:22.113Z,33.38
2019-03-01T09:06:49.550Z,33.32
2019-03-01T09:09:17.553Z,32.83
2019-03-01T09:11:46.305Z,32.96
2019-03-01T09:14:13.735Z,33.17
2019-03-01T09:16:41.243Z,33.08
2019-03-01T09:19:08.739Z,32.81
2019-03-01T09:21:36.128Z,32.47
2019-03-01T09:24:03.855Z,32.27
2019-03-01T09:26:31.316Z,32.53
2019-03-01T09:28:58.777Z,33.08
2019-03-01T09:31:26.169Z,32.52
2019-03-01T09:33:56.371Z,32.39
2019-03-01T09:36:35.829Z,33.03
2019-03-01T09:39:05.836Z,32.62
2019-03-01T09:41:36.630Z,32.32
2019-03-01T09:44:03.788Z,32.52
2019-03-01T09:46:31.393Z,32.00
2019-03-01T09:48:58.782Z,31.60
2019-03-01T09:51:26.243Z,31.36
2019-03-01T09:53:53.703Z,31.96
2019-03-01T09:56:21.192Z,31.30
2019-03-01T09:58:48.956Z,31.42
2019-03-01T10:01:17.757Z,31.42
2019-03-01T10:03:45.798Z,30.96
2019-03-01T10:06:13.348Z,30.68
2019-03-01T10:08:40.781Z,30.56
2019-03-01T10:11:08.206Z,30.41
2019-03-01T10:16:03.366Z,30.89
2019-03-01T10:18:30.906Z,30.61
2019-03-01T10:20:58.357Z,30.65
2019-03-01T10:23:25.811Z,30.40
2019-03-01T10:25:53.475Z,29.94
2019-03-01T10:28:20.884Z,30.23
2019-03-01T10:30:48.388Z,29.99
2019-03-01T10:33:15.847Z,30.16
2019-03-01T10:35:43.306Z,30.13
2019-03-01T10:38:10.775Z,29.34
2019-03-01T10:40:38.313Z,29.34
2019-03-01T10:43:05.887Z,29.52
2019-03-01T10:45:33.329Z,29.98
2019-03-01T10:48:00.903Z,30.38
2019-03-01T10:50:28.290Z,30.81
2019-03-01T10:52:55.735Z,30.42
2019-03-01T10:55:23.329Z,30.34
2019-03-01T10:57:50.834Z,30.00
2019-03-01T11:00:20.357Z,30.05
2019-03-01T11:02:47.911Z,30.35
2019-03-01T11:05:15.299Z,30.48
2019-03-01T11:07:42.894Z,30.62
2019-03-01T11:10:12.976Z,30.56
2019-03-01T11:12:40.362Z,30.45
2019-03-01T11:15:09.490Z,30.37
2019-03-01T11:17:36.927Z,30.22
2019-03-01T11:20:05.215Z,29.82
2019-03-01T11:22:32.691Z,30.17
2019-03-01T11:25:00.259Z,29.96
2019-03-01T11:27:27.684Z,30.22
2019-03-01T11:29:55.151Z,29.34
2019-03-01T11:32:22.651Z,29.52
2019-03-01T11:34:50.112Z,30.09
2019-03-01T11:37:17.731Z,30.09
2019-03-01T11:39:45.177Z,30.00
2019-03-01T11:42:12.549Z,30.48
2019-03-01T11:44:40.154Z,30.29
2019-03-01T11:47:07.786Z,30.14
2019-03-01T11:49:35.228Z,29.94
2019-03-01T11:52:02.677Z,30.77
2019-03-01T11:54:30.168Z,30.26
2019-03-01T11:56:57.570Z,29.81
2019-03-01T11:59:25.685Z,29.98
2019-03-01T12:01:53.119Z,30.24
2019-03-01T12:04:20.608Z,30.61
2019-03-01T12:06:48.119Z,30.90
2019-03-01T12:09:15.794Z,30.99
2019-03-01T12:11:43.219Z,31.18
2019-03-01T12:14:10.651Z,30.87
2019-03-01T12:16:38.081Z,30.59
2019-03-01T12:19:05.564Z,30.51
2019-03-01T12:21:33.050Z,30.44
2019-03-01T12:24:00.593Z,30.77
2019-03-01T12:26:28.103Z,31.40
2019-03-01T12:28:55.544Z,30.84
2019-03-01T12:31:22.984Z,30.53
2019-03-01T12:33:50.517Z,30.44
2019-03-01T12:36:17.891Z,30.56
2019-03-01T12:38:45.325Z,30.96
2019-03-01T12:41:12.771Z,30.74
2019-03-01T12:43:40.222Z,30.51
2019-03-01T12:46:08.038Z,30.20
2019-03-01T12:48:35.563Z,30.15
2019-03-01T12:51:03.061Z,29.89
2019-03-01T12:53:30.423Z,29.73
2019-03-01T12:55:57.886Z,29.82
2019-03-01T12:58:25.462Z,30.34
2019-03-01T13:00:52.941Z,30.69
2019-03-01T13:03:20.338Z,30.12
2019-03-01T13:05:49.905Z,30.03
2019-03-01T13:08:17.264Z,29.71
2019-03-01T13:10:46.150Z,29.19
2019-03-01T13:13:13.614Z,29.41
2019-03-01T13:15:41.178Z,29.92
2019-03-01T13:18:13.626Z,29.45
2019-03-01T13:20:38.185Z,29.59
2019-03-01T13:23:06.255Z,29.65
2019-03-01T13:25:33.909Z,29.68
2019-03-01T13:28:01.477Z,29.45
2019-03-01T13:30:28.946Z,29.19
2019-03-01T13:32:58.870Z,28.95
2019-03-01T13:35:27.273Z,28.17
2019-03-01T13:37:56.564Z,28.55
2019-03-01T13:40:25.365Z,28.15
2019-03-01T13:42:53.119Z,29.02
2019-03-01T13:45:20.597Z,28.97
2019-03-01T13:47:48.190Z,28.63
2019-03-01T13:50:16.508Z,28.65
2019-03-01T13:52:43.918Z,28.56
2019-03-01T13:55:11.668Z,28.16
2019-03-01T13:57:39.104Z,28.61
2019-03-01T14:00:09.207Z,28.47
2019-03-01T14:02:36.626Z,28.30
2019-03-01T14:05:04.765Z,28.24
2019-03-01T14:07:32.438Z,27.99
2019-03-01T14:10:00.760Z,28.55
2019-03-01T14:12:29.168Z,28.75
2019-03-01T14:14:59.302Z,28.90
2019-03-01T14:17:25.968Z,28.50
2019-03-01T14:19:53.361Z,29.20
2019-03-01T14:22:20.855Z,29.68
2019-03-01T14:24:48.517Z,29.33
2019-03-01T14:27:15.890Z,28.71
2019-03-01T14:29:43.353Z,29.77
2019-03-01T14:32:10.813Z,30.14
2019-03-01T14:34:38.206Z,30.26
2019-03-01T14:37:05.658Z,30.38
2019-03-01T14:39:33.120Z,30.26
2019-03-01T14:42:00.526Z,30.17
2019-03-01T14:44:30.732Z,29.60
2019-03-01T14:46:57.359Z,29.88
2019-03-01T14:49:24.981Z,29.97
2019-03-01T14:51:52.462Z,29.62
2019-03-01T14:54:21.325Z,29.78
2019-03-01T14:56:53.272Z,29.85
2019-03-01T14:59:25.347Z,29.94
2019-03-01T15:02:08.847Z,30.40
2019-03-01T15:04:36.270Z,30.44
2019-03-01T15:07:03.794Z,30.99
2019-03-01T15:09:31.181Z,31.09
2019-03-01T15:11:58.609Z,31.19
2019-03-01T15:14:26.292Z,31.31
2019-03-01T15:16:53.733Z,31.41
2019-03-01T15:19:21.118Z,31.74
2019-03-01T15:21:48.581Z,31.54
2019-03-01T15:24:16.034Z,31.83
2019-03-01T15:26:46.229Z,31.86
2019-03-01T15:29:12.815Z,31.77
2019-03-01T15:31:40.347Z,32.22
2019-03-01T15:34:07.769Z,32.47
2019-03-01T15:36:35.162Z,32.54
2019-03-01T15:39:04.547Z,32.61
2019-03-01T15:41:32.025Z,33.00
2019-03-01T15:43:59.509Z,33.15
2019-03-01T15:46:26.979Z,33.28
2019-03-01T15:48:54.474Z,33.29
2019-03-01T15:51:22.197Z,33.86
2019-03-01T15:53:49.662Z,33.83
2019-03-01T15:56:17.172Z,34.11
2019-03-01T15:58:46.465Z,33.89
2019-03-01T16:01:13.947Z,33.91
2019-03-01T16:03:41.771Z,33.79
2019-03-01T16:06:10.487Z,33.97
2019-03-01T16:08:38.168Z,34.20
2019-03-01T16:11:05.615Z,34.44
2019-03-01T16:13:33.139Z,34.56
2019-03-01T16:16:00.529Z,34.73
2019-03-01T16:18:27.976Z,34.93
2019-03-01T16:20:55.420Z,35.01
2019-03-01T16:23:22.828Z,35.05
2019-03-01T16:25:53.045Z,35.37
2019-03-01T16:28:19.721Z,35.43
2019-03-01T16:30:49.634Z,35.55
2019-03-01T16:33:16.722Z,35.71
2019-03-01T16:35:44.185Z,35.66
2019-03-01T16:38:11.665Z,35.82
2019-03-01T16:40:39.082Z,35.94
2019-03-01T16:43:06.580Z,36.25
2019-03-01T16:45:36.156Z,36.39
2019-03-01T16:48:03.397Z,36.55
2019-03-01T16:50:30.869Z,36.61
2019-03-01T16:53:04.202Z,36.62
2019-03-01T16:55:28.834Z,36.87
2019-03-01T16:58:06.269Z,37.03
2019-03-01T17:00:26.578Z,37.30
2019-03-01T17:02:54.343Z,37.43
2019-03-01T17:05:21.816Z,37.47
2019-03-01T17:07:49.332Z,37.53
2019-03-01T17:10:16.989Z,37.41
2019-03-01T17:12:44.473Z,37.80
2019-03-01T17:15:16.289Z,37.47
2019-03-01T17:17:44.406Z,37.16
2019-03-01T17:20:12.072Z,37.20
2019-03-01T17:22:39.419Z,37.05
2019-03-01T17:25:07.031Z,37.48
2019-03-01T17:27:36.632Z,37.40
2019-03-01T17:30:04.626Z,37.48
2019-03-01T17:32:34.188Z,37.29
2019-03-01T17:35:04.977Z,37.77
2019-03-01T17:37:32.394Z,38.04
2019-03-01T17:40:00.033Z,37.92
2019-03-01T17:42:27.511Z,38.06
2019-03-01T17:44:54.937Z,38.22
2019-03-01T17:47:22.505Z,38.65
2019-03-01T17:49:49.912Z,39.08
2019-03-01T17:52:17.376Z,39.31
2019-03-01T17:54:44.966Z,39.67
2019-03-01T17:57:12.423Z,39.67
2019-03-01T17:59:39.970Z,39.86
2019-03-01T18:02:07.411Z,39.73
2019-03-01T18:04:36.982Z,39.90
2019-03-01T18:07:04.236Z,40.28
2019-03-01T18:09:31.665Z,40.68
2019-03-01T18:11:59.123Z,40.72
2019-03-01T18:14:26.592Z,40.71
2019-03-01T18:16:57.091Z,41.42
2019-03-01T18:19:23.722Z,41.00
2019-03-01T18:21:52.697Z,41.21
2019-03-01T18:24:20.192Z,41.20
2019-03-01T18:26:47.552Z,40.66
2019-03-01T18:29:15.033Z,41.04
2019-03-01T18:31:42.502Z,40.75
2019-03-01T18:34:09.967Z,40.60
2019-03-01T18:36:37.431Z,40.72
2019-03-01T18:39:10.114Z,41.51
2019-03-01T18:41:37.502Z,41.27
2019-03-01T18:44:04.928Z,40.89
2019-03-01T18:46:32.353Z,40.92
2019-03-01T18:48:59.816Z,40.90
2019-03-01T18:51:27.188Z,40.82
2019-03-01T18:53:54.662Z,40.52
2019-03-01T18:56:25.032Z,40.49
2019-03-01T18:58:51.740Z,40.26
2019-03-01T19:01:19.644Z,40.37
2019-03-01T19:03:47.087Z,40.45
2019-03-01T19:06:16.228Z,40.72
2019-03-01T19:08:43.954Z,40.64
2019-03-01T19:11:11.409Z,40.56
2019-03-01T19:13:38.843Z,40.41
2019-03-01T19:16:06.291Z,40.44
2019-03-01T19:18:33.757Z,40.49
2019-03-01T19:21:01.168Z,40.32
2019-03-01T19:23:29.409Z,40.19
2019-03-01T19:26:01.764Z,39.97
2019-03-01T19:28:27.706Z,41.50
2019-03-01T19:30:55.291Z,40.08
2019-03-01T19:33:22.897Z,40.10
2019-03-01T19:35:50.273Z,39.99
2019-03-01T19:38:17.735Z,40.04
2019-03-01T19:40:46.967Z,40.43
2019-03-01T19:43:14.494Z,40.29
2019-03-01T19:45:41.913Z,40.32
2019-03-01T19:48:09.433Z,40.69
2019-03-01T19:50:36.897Z,41.15
2019-03-01T19:53:04.332Z,41.28
2019-03-01T19:55:31.864Z,41.46
2019-03-01T19:57:59.450Z,41.18
2019-03-01T20:00:27.191Z,41.83
2019-03-01T20:02:55.053Z,42.32
2019-03-01T20:05:23.871Z,43.16
2019-03-01T20:07:51.781Z,44.22
2019-03-01T20:10:20.820Z,45.46
2019-03-01T20:12:48.253Z,45.81
2019-03-01T20:15:17.846Z,46.41
2019-03-01T20:17:45.277Z,47.64
2019-03-01T20:20:13.876Z,47.74
2019-03-01T20:22:41.441Z,47.35
2019-03-01T20:25:12.722Z,47.42
2019-03-01T20:27:40.255Z,47.53
2019-03-01T20:30:14.029Z,47.93
2019-03-01T20:32:41.515Z,48.20
2019-03-01T20:35:12.710Z,48.69
2019-03-01T20:37:40.108Z,49.20
2019-03-01T20:40:09.754Z,49.64
2019-03-01T20:42:37.511Z,49.41
2019-03-01T20:45:09.114Z,49.34
2019-03-01T20:47:36.573Z,49.05
2019-03-01T20:50:04.348Z,49.48
2019-03-01T20:52:34.808Z,49.61
2019-03-01T20:55:01.766Z,49.63
2019-03-01T20:57:29.361Z,50.53
2019-03-01T20:59:56.903Z,50.64
2019-03-01T21:02:24.375Z,51.14
2019-03-01T21:04:53.565Z,51.55
2019-03-01T21:07:21.131Z,51.69
2019-03-01T21:09:48.580Z,51.95
2019-03-01T21:12:15.962Z,51.94
2019-03-01T21:14:43.412Z,52.40
2019-03-01T21:17:10.871Z,52.16
2019-03-01T21:19:40.846Z,52.04
2019-03-01T21:22:07.807Z,52.38
2019-03-01T21:24:35.188Z,52.35
2019-03-01T21:27:02.684Z,52.47
2019-03-01T21:29:30.120Z,52.66
2019-03-01T21:31:57.577Z,52.68
2019-03-01T21:34:25.002Z,52.29
2019-03-01T21:36:52.353Z,53.05
2019-03-01T21:39:20.648Z,52.92
2019-03-01T21:41:51.288Z,53.54
2019-03-01T21:44:18.877Z,53.82
2019-03-01T21:46:46.325Z,53.90
2019-03-01T21:49:13.788Z,54.28
2019-03-01T21:51:41.214Z,54.59
2019-03-01T21:54:08.702Z,54.77
2019-03-01T21:56:36.182Z,55.00
2019-03-01T21:59:05.508Z,55.00
2019-03-01T22:01:32.985Z,54.51
2019-03-01T22:04:02.501Z,54.99
2019-03-01T22:06:29.972Z,54.27
2019-03-01T22:08:57.451Z,54.17
2019-03-01T22:11:24.948Z,54.11
2019-03-01T22:13:52.407Z,54.34
2019-03-01T22:16:19.901Z,53.82
2019-03-01T22:18:47.355Z,53.55
2019-03-01T22:21:16.926Z,53.36
2019-03-01T22:23:44.157Z,54.33
2019-03-01T22:26:13.622Z,55.67
2019-03-01T22:28:40.983Z,54.10
2019-03-01T22:31:08.459Z,54.07
2019-03-01T22:33:35.931Z,54.28
2019-03-01T22:36:03.303Z,54.03
2019-03-01T22:38:30.780Z,53.45
2019-03-01T22:41:00.577Z,53.63
2019-03-01T22:43:27.551Z,53.35
2019-03-01T22:45:54.979Z,53.20
2019-03-01T22:48:22.424Z,53.50
2019-03-01T22:50:49.888Z,54.18
2019-03-01T22:53:17.274Z,54.47
2019-03-01T22:55:44.731Z,56.10
2019-03-01T22:58:12.187Z,54.73
2019-03-01T23:01:20.887Z,54.00
2019-03-01T23:04:03.196Z,54.38
2019-03-01T23:06:30.658Z,57.26
2019-03-01T23:08:58.113Z,54.13
2019-03-01T23:11:28.807Z,54.33
2019-03-01T23:13:55.718Z,54.53
2019-03-01T23:16:24.087Z,55.14
2019-03-01T23:18:56.601Z,55.89
2019-03-01T23:21:20.863Z,57.12
2019-03-01T23:23:48.315Z,57.52
2019-03-01T23:26:18.664Z,57.46
2019-03-01T23:28:45.067Z,57.77
2019-03-01T23:31:12.518Z,57.04
2019-03-01T23:33:39.956Z,57.28
2019-03-01T23:36:07.377Z,59.94
2019-03-01T23:38:34.735Z,59.81
2019-03-01T23:41:02.216Z,60.27
2019-03-01T23:43:30.794Z,59.04
2019-03-01T23:45:59.029Z,59.26
2019-03-01T23:48:26.421Z,59.79
2019-03-01T23:50:53.900Z,60.86
2019-03-01T23:53:21.335Z,61.47
2019-03-01T23:55:51.004Z,61.58
2019-03-01T23:58:18.128Z,61.88
